• Join FlightAware (Why Join?)
  • Login
  • US Flag 
10:33AM EDT


 

Airport Tracker/Info


-or-


 

Live Flight TrackerFlight Track Log ✈ N9810H ✈ 04-Oct-2013 ✈ I12 - KFLD

Flight Track Log - Related Links

Times and Time Zones

All times are in EDT time to prevent confusion due to time zone crossing. See the N9810H flight status page for this flight to view local times or setup timezone preferences in your user account.

Time Position Orientation Groundspeed Altitude Reporting Facility
EDT Latitude Longitude Course Direction KTS MPH feet Rate Location/Type
05:23PM 40.3880 -84.2850 332° Northwest 86 99  Level FlightAware
05:24PM 40.3950 -84.2900 331° Northwest 86 99 240 Level FlightAware
05:24PM 40.4000 -84.2930 335° Northwest 84 97 240 Level FlightAware
05:24PM 40.4070 -84.2970 336° Northwest 82 94 240 Level FlightAware
05:25PM 40.4150 -84.3020 335° Northwest 82 94 240 Level FlightAware
05:25PM 40.4250 -84.3090 332° Northwest 83 96 240 Level FlightAware
05:25PM 40.4320 -84.3130 336° Northwest 82 94 240 Level FlightAware
05:26PM 40.4420 -84.3190 335° Northwest 84 97 240 Level FlightAware
05:27PM 40.4690 -84.3380 332° Northwest 97 112 300 Level FlightAware
05:28PM 40.4820 -84.3460 335° Northwest 97 112 300 Level FlightAware
05:28PM 40.4980 -84.3560 335° Northwest 119 137 300 Level FlightAware
05:28PM 40.5070 -84.3620 333° Northwest 120 138 300 Level FlightAware
05:29PM 40.5100 -84.3640 333° Northwest 119 137 300 Level FlightAware
05:29PM 40.5150 -84.3700 318° Northwest 115 132 300 Level FlightAware
05:29PM 40.5250 -84.3820 318° Northwest 116 133 300 Level FlightAware
05:30PM 40.5340 -84.3940 315° West 118 136 300 Level FlightAware
05:30PM 40.5410 -84.4030 316° Northwest 116 133 300 Level FlightAware
05:30PM 40.5480 -84.4130 313° West 114 131 360 Level FlightAware
05:30PM 40.5560 -84.4230 316° Northwest 116 133 360 Level FlightAware
05:31PM 40.5640 -84.4340 314° West 118 136 360 Level FlightAware
05:31PM 40.5730 -84.4450 317° Northwest 122 140 360 Level FlightAware
05:31PM 40.5790 -84.4530 315° West 123 142 360 Level FlightAware
05:32PM 40.5850 -84.4620 311° West 119 137 360 Level FlightAware
05:32PM 40.5940 -84.4730 317° Northwest 114 131 360 Level FlightAware
05:32PM 40.6000 -84.4810 315° West 113 130 360 Level FlightAware
05:33PM 40.6070 -84.4910 313° West 115 132 360 Level FlightAware
05:33PM 40.6150 -84.5010 317° Northwest 118 136 360 Level FlightAware
05:33PM 40.6210 -84.5080 318° Northwest 118 136 420 Level FlightAware
05:34PM 40.6290 -84.5190 314° West 120 138 420 Level FlightAware
05:34PM 40.6370 -84.5290 317° Northwest 122 140 420 Level FlightAware
05:34PM 40.6470 -84.5420 315° West 123 142 420 Level FlightAware
05:35PM 40.6530 -84.5510 311° West 122 140 420 Level FlightAware
05:35PM 40.6600 -84.5600 316° Northwest 120 138 420 Level FlightAware
05:35PM 40.6670 -84.5700 313° West 118 136 420 Level FlightAware
05:36PM 40.6750 -84.5810 314° West 116 133 480 Level FlightAware
05:36PM 40.6790 -84.5870 311° West 114 131 480 Level FlightAware
05:36PM 40.6880 -84.5990 315° West 116 133 480 Level FlightAware
05:37PM 40.6960 -84.6100 314° West 115 132 480 Level FlightAware
05:37PM 40.7030 -84.6200 313° West 114 131 480 Level FlightAware
05:37PM 40.7100 -84.6280 319° Northwest 115 132 480 Level FlightAware
05:38PM 40.7180 -84.6400 311° West 117 135 540 Level FlightAware
05:38PM 40.7270 -84.6520 315° West 118 136 540 Level FlightAware
05:38PM 40.7350 -84.6640 311° West 117 135 540 Level FlightAware
05:39PM 40.7440 -84.6760 315° West 118 136 540 Level FlightAware
05:39PM 40.7510 -84.6860 313° West 117 135 600 Level FlightAware
05:39PM 40.7560 -84.6970 301° West 118 136 600 Level FlightAware
05:40PM 40.7620 -84.7110 300° West 118 136 600 Level FlightAware
05:40PM 40.7700 -84.7270 303° West 115 132 600 Level FlightAware
05:40PM 40.7750 -84.7380 301° West 116 133 660 Level FlightAware
05:41PM 40.7820 -84.7510 305° West 118 136 660 Level FlightAware
05:41PM 40.7850 -84.7580 300° West 117 135 720 Level FlightAware
05:41PM 40.7890 -84.7690 296° West 118 136 720 Level FlightAware
05:42PM 40.7950 -84.7860 295° West 115 132 720 Level FlightAware
05:42PM 40.8010 -84.7990 301° West 115 132 780 Level FlightAware
05:42PM 40.8060 -84.8120 297° West 115 132 780 Level FlightAware
05:43PM 40.8090 -84.8220 292° West 115 132 840 Level FlightAware
05:43PM 40.8120 -84.8350 287° West 114 131 840 Level FlightAware
05:43PM 40.8160 -84.8490 291° West 112 129 900 Level FlightAware
05:44PM 40.8200 -84.8620 292° West 113 130 900 Level FlightAware
05:44PM 40.8240 -84.8770 289° West 114 131 960 Level FlightAware
05:44PM 40.8280 -84.8900 292° West 116 133 1,020 Level FlightAware
05:45PM 40.8320 -84.9040 291° West 119 137 1,020 Level FlightAware
05:45PM 40.8360 -84.9170 292° West 118 136 1,080 Level FlightAware
05:45PM 40.8410 -84.9320 294° West 114 131 1,140 Level FlightAware
05:46PM 40.8450 -84.9450 292° West 117 135 1,200 Level FlightAware
05:46PM 40.8470 -84.9540 286° West 120 138 1,320 Level FlightAware
05:46PM 40.8520 -84.9690 294° West 103 119 1,380 Level FlightAware
05:47PM 40.8560 -84.9810 294° West 98 113 1,440 Level FlightAware
05:47PM 40.8590 -84.9910 292° West 92 106 1,560 Level FlightAware
05:47PM 40.8630 -85.0010 298° West 91 105 1,680 Level FlightAware
05:48PM 40.8660 -85.0120 290° West 104 120 1,800 Level FlightAware
05:48PM 40.8710 -85.0280 292° West 102 117 1,980 Level FlightAware
05:48PM 40.8730 -85.0350 291° West 102 117 2,220 Level FlightAware
05:49PM 40.8770 -85.0460 296° West 104 120 2,340 Level FlightAware
05:49PM 40.8810 -85.0580 294° West 104 120 2,580 Level FlightAware
05:50PM 40.9200 -85.0700 347° North 128 147 3,000 Level FlightAware
05:51PM 40.9330 -85.0750 344° North 128 147 4,980 Level FlightAware
05:52PM 40.9672 -85.0869 344° North 126 145 7,900 3,600 Climbing Chicago Center
05:53PM 41.0019 -85.0975 347° North 127 146 7,900  Level Chicago Center
05:54PM 41.0417 -85.1139 343° North 125 144 7,900  Level Chicago Center
05:55PM 41.0758 -85.1267 344° North 126 145 8,000  Climbing Chicago Center
05:56PM 41.1083 -85.1400 343° North 125 144 8,000 -60 Level Chicago Center
05:57PM 41.1411 -85.1517 345° North 123 142 7,900 -60 Descending Chicago Center
05:58PM 41.1736 -85.1625 346° North 122 140 7,900  Level Chicago Center
05:59PM 41.2078 -85.1750 345° North 124 143 7,900  Level Chicago Center
06:00PM 41.2494 -85.1925 342° North 129 148 8,000  Climbing Chicago Center
06:01PM 41.2833 -85.2061 343° North 129 148 7,900 -60 Descending Chicago Center
06:02PM 41.3192 -85.2186 345° North 131 151 7,900  Level Chicago Center
06:03PM 41.3533 -85.2308 345° North 130 150 7,900  Level Chicago Center
06:04PM 41.3864 -85.2453 342° North 128 147 7,900  Level Chicago Center
06:05PM 41.4272 -85.2600 345° North 127 146 7,900  Level Chicago Center
06:06PM 41.4606 -85.2731 344° North 126 145 8,000  Climbing Chicago Center
06:07PM 41.4944 -85.2861 344° North 127 146 7,900  Descending Chicago Center
06:08PM 41.5292 -85.2989 345° North 129 148 8,000  Climbing Chicago Center
06:09PM 41.5636 -85.3117 344° North 129 148 8,000 -60 Level Chicago Center
06:10PM 41.6050 -85.3278 344° North 130 150 7,900 -60 Descending Chicago Center
06:11PM 41.6392 -85.3411 344° North 130 150 7,900  Level Chicago Center
06:12PM 41.6739 -85.3544 344° North 131 151 7,900  Level Chicago Center
06:13PM 41.7081 -85.3681 343° North 130 150 7,900  Level Chicago Center
06:14PM 41.7431 -85.3814 344° North 131 151 7,900  Level Chicago Center
06:16PM 41.7850 -85.3978 344° North 132 152 7,900  Level Chicago Center
06:17PM 41.8197 -85.4111 344° North 131 151 8,000  Climbing Chicago Center
06:18PM 41.8550 -85.4250 344° North 131 151 8,000 -60 Level Chicago Center
06:23PM 42.0620 -85.5040 344° North 129 148 7,800 -60 Descending FlightAware
06:24PM 42.0850 -85.5130 344° North 126 145 7,900 60 Climbing FlightAware
06:24PM 42.0960 -85.5180 341° North 126 145 7,900  Level FlightAware
06:25PM 42.1130 -85.5240 345° North 123 142 7,900  Level FlightAware
06:25PM 42.1240 -85.5290 341° North 123 142 7,900  Level FlightAware
06:26PM 42.1340 -85.5330 343° North 123 142 7,900  Level FlightAware
06:26PM 42.1440 -85.5370 343° North 123 142 7,900  Level FlightAware
06:26PM 42.1630 -85.5440 345° North 128 147 7,900 -120 Level FlightAware
06:27PM 42.1730 -85.5480 343° North 128 147 7,800 -180 Descending FlightAware
06:27PM 42.1850 -85.5520 346° North 126 145 7,800  Level FlightAware
06:27PM 42.1990 -85.5580 342° North 123 142 7,800  Level FlightAware
06:28PM 42.2100 -85.5620 345° North 123 142 7,800  Level FlightAware
06:28PM 42.2200 -85.5660 343° North 123 142 7,800  Level FlightAware
06:28PM 42.2280 -85.5690 344° North 123 142 7,800 300 Level FlightAware
06:29PM 42.2390 -85.5730 345° North 106 122 8,000 780 Climbing FlightAware
06:29PM 42.2490 -85.5770 344° North 82 94 8,400 780 Climbing FlightAware
06:29PM 42.2550 -85.5790 346° North 77 89 8,600 600 Climbing FlightAware
06:30PM 42.2590 -85.5810 340° North 76 87 8,700 480 Climbing FlightAware
06:30PM 42.2680 -85.5850 342° North 80 92 8,900 300 Climbing FlightAware
06:30PM 42.2720 -85.5860 350° North 86 99 8,900  Level FlightAware
06:31PM 42.2800 -85.5900 340° North 105 121 8,900  Level FlightAware
06:31PM 42.2910 -85.5940 345° North 114 131 8,900  Level FlightAware
06:31PM 42.3030 -85.5990 343° North 118 136 8,900  Level FlightAware
06:31PM 42.3090 -85.6010 346° North 121 139 8,900  Level FlightAware
06:32PM 42.3230 -85.6060 345° North 125 144 8,900  Level FlightAware
06:32PM 42.3330 -85.6100 344° North 125 144 8,900  Level FlightAware
06:33PM 42.3440 -85.6150 341° North 126 145 8,900  Level FlightAware
06:33PM 42.3540 -85.6180 347° North 127 146 8,900  Level FlightAware
06:33PM 42.3670 -85.6240 341° North 129 148 8,900  Level FlightAware
06:33PM 42.3740 -85.6270 342° North 129 148 8,900  Level FlightAware
06:34PM 42.3830 -85.6300 346° North 129 148 8,900  Level FlightAware
06:34PM 42.4020 -85.6370 345° North 126 145 8,900  Level FlightAware
06:35PM 42.4130 -85.6420 341° North 126 145 8,900  Level FlightAware
06:35PM 42.4270 -85.6470 345° North 126 145 8,900  Level FlightAware
06:35PM 42.4390 -85.6520 343° North 126 145 8,900  Level FlightAware
06:36PM 42.4500 -85.6560 345° North 126 145 8,900  Level FlightAware
06:36PM 42.4620 -85.6610 343° North 126 145 8,900 -60 Level FlightAware
06:40PM 42.6080 -85.7250 342° North 109 125 -60 Descending FlightAware
06:40PM 42.6140 -85.7370 304° West 111 128 360 Level FlightAware
06:41PM 42.6200 -85.7490 304° West 112 129 360 Level FlightAware
06:41PM 42.6260 -85.7600 307° West 115 132 360 Level FlightAware
06:41PM 42.6310 -85.7690 307° West 117 135 360 Level FlightAware
06:42PM 42.6380 -85.7820 306° West 115 132 360 Level FlightAware
06:42PM 42.6430 -85.7900 310° West 117 135 360 Level FlightAware
06:42PM 42.6500 -85.8030 306° West 114 131 420 Level FlightAware
06:43PM 42.6560 -85.8140 307° West 114 131 420 Level FlightAware
06:43PM 42.6600 -85.8200 312° West 114 131 420 Level FlightAware
06:43PM 42.6660 -85.8310 307° West 112 129 420 Level FlightAware
06:44PM 42.6750 -85.8480 306° West 113 130 420 Level FlightAware
06:44PM 42.6840 -85.8630 309° West 112 129 420 Level FlightAware
06:44PM 42.6900 -85.8750 304° West 111 128 420 Level FlightAware
06:45PM 42.6950 -85.8830 310° West 111 128 480 Level FlightAware
06:45PM 42.7010 -85.8940 307° West 113 130 480 Level FlightAware
06:45PM 42.7100 -85.9090 309° West 113 130 480 Level FlightAware
06:46PM 42.7150 -85.9190 304° West 113 130 480 Level FlightAware
06:46PM 42.7200 -85.9280 307° West 114 131 480 Level FlightAware
06:47PM 42.7340 -85.9510 310° West 115 132 480 Level FlightAware
06:47PM 42.7450 -85.9720 306° West 114 131 540 Level FlightAware
06:48PM 42.7540 -85.9870 309° West 115 132 540 Level FlightAware
06:49PM 42.7750 -86.0240 308° West 114 131 600 Level FlightAware
06:49PM 42.7810 -86.0360 304° West 111 128 600 Level FlightAware
06:49PM 42.7860 -86.0450 307° West 112 129 660 Level FlightAware
06:50PM 42.7930 -86.0570 308° West 112 129 660 Level FlightAware
06:50PM 42.8010 -86.0720 306° West 115 132 660 Level FlightAware
06:51PM 42.8080 -86.0850 306° West 115 132 720 Level FlightAware
07:01PM 43.0083 -86.4450 306° West 117 135 8,000 660 Climbing Chicago Center
07:02PM 43.0292 -86.4792 310° West 116 133 8,000 -60 Level Chicago Center
07:03PM 43.0506 -86.5208 305° West 113 130 7,900 -60 Descending Chicago Center
07:04PM 43.0692 -86.5539 308° West 109 125 7,900  Level Chicago Center
07:05PM 43.0872 -86.5861 308° West 107 123 7,900  Level Chicago Center
07:06PM 43.1042 -86.6181 306° West 105 121 7,900  Level Chicago Center
07:07PM 43.1219 -86.6497 308° West 105 121 7,900  Level Chicago Center
07:08PM 43.1394 -86.6825 306° West 105 121 7,900  Level Chicago Center
07:09PM 43.1567 -86.7139 307° West 105 121 7,900  Level Chicago Center
07:10PM 43.1781 -86.7528 307° West 106 122 7,900 -60 Level Chicago Center
07:11PM 43.1956 -86.7847 307° West 104 120 7,800 -60 Descending Chicago Center
07:12PM 43.2128 -86.8175 306° West 106 122 7,800  Level Chicago Center
07:13PM 43.2308 -86.8486 309° West 105 121 7,800  Level Chicago Center
07:14PM 43.2481 -86.8806 307° West 105 121 7,800  Level Chicago Center
07:15PM 43.2650 -86.9117 307° West 102 117 7,800  Level Chicago Center
07:16PM 43.2861 -86.9508 307° West 105 121 7,900  Climbing Chicago Center
07:18PM 43.3042 -86.9817 309° West 104 120 7,800  Descending Chicago Center
07:19PM 43.3217 -87.0144 306° West 107 123 7,900  Climbing Chicago Center
07:20PM 43.3397 -87.0467 308° West 106 122 7,900  Level Chicago Center
07:21PM 43.3572 -87.0797 306° West 107 123 7,900  Level Chicago Center
07:22PM 43.3753 -87.1133 306° West 108 124 7,900  Level Chicago Center
07:23PM 43.3964 -87.1533 306° West 108 124 8,000  Climbing Chicago Center
07:24PM 43.4147 -87.1864 307° West 108 124 8,000  Level Chicago Center
07:25PM 43.4233 -87.2231 288° West 102 117 8,000  Level Chicago Center
07:26PM 43.4281 -87.2625 279° West 104 120 8,000  Level Chicago Center
07:27PM 43.4342 -87.3025 282° West 107 123 8,000  Level Chicago Center
07:28PM 43.4397 -87.3394 282° West 101 116 8,000  Level Chicago Center
07:29PM 43.4450 -87.3825 280° West 103 119 8,000  Level Chicago Center
07:30PM 43.4508 -87.4225 281° West 107 123 8,000  Level Chicago Center
07:31PM 43.4569 -87.4694 280° West 103 119 8,000  Level Chicago Center
07:32PM 43.4636 -87.5108 283° West 109 125 8,000  Level Chicago Center
07:33PM 43.4683 -87.5511 279° West 107 123 8,000  Level Chicago Center
07:34PM 43.4736 -87.5917 280° West 108 124 8,000  Level Chicago Center
07:35PM 43.4792 -87.6314 281° West 105 121 8,000  Level Chicago Center
07:36PM 43.4847 -87.6717 281° West 106 122 8,000  Level Chicago Center
07:37PM 43.4914 -87.7200 281° West 106 122 8,000  Level Chicago Center
07:38PM 43.4972 -87.7611 281° West 108 124 8,000  Level Chicago Center
07:39PM 43.5022 -87.8022 280° West 110 127 8,000  Level Chicago Center
07:40PM 43.5075 -87.8436 280° West 110 127 8,000  Level Chicago Center
07:41PM 43.5136 -87.8847 282° West 109 125 8,000  Level Chicago Center
07:42PM 43.5189 -87.9275 280° West 113 130 8,000 -180 Level Chicago Center
07:43PM 43.5264 -87.9769 282° West 112 129 7,700 -420 Descending Chicago Center
07:44PM 43.5322 -88.0214 280° West 116 133 7,200 -540 Descending Chicago Center
07:45PM 43.5375 -88.0639 280° West 114 131 6,700 -600 Descending Chicago Center
07:46PM 43.5431 -88.1042 281° West 109 125 6,000 -720 Descending Chicago Center
07:47PM 43.5478 -88.1453 279° West 108 124 5,300 -720 Descending Chicago Center
07:49PM 43.5539 -88.1878 281° West 111 128 4,500 -840 Descending Chicago Center
07:50PM 43.5617 -88.2442 281° West 119 137 3,600 -720 Descending Chicago Center
07:51PM 43.5681 -88.2953 280° West 128 147 3,100 -300 Descending Chicago Center
07:52PM 43.5736 -88.3411 280° West 127 146 3,000 -60 Descending Chicago Center
07:53PM 43.5756 -88.3778 274° West 111 128 3,000  Level Chicago Center
07:54PM 43.5758 -88.4156 271° West 103 119 3,000  Level Chicago Center
07:55PM 43.5758 -88.4633 270° West 103 119 3,000  Level Chicago Center
07:56PM 43.5897 -88.4922 304° West 108 124 3,000  Level Chicago Center
07:57PM 43.6150 -88.4881 North 99 114 3,000  Level Chicago Center
07:58PM 43.6414 -88.4886 359° North 96 110 3,000 -240 Level Chicago Center
07:59PM 43.6725 -88.4875 North 94 108 2,600 -420 Descending Chicago Center
08:00PM 43.6956 -88.4861 North 89 102 2,200 -420 Descending Chicago Center
08:01PM 43.7181 -88.4861 360° North 85 98 1,800 -420 Descending Chicago Center
08:02PM 43.7381 -88.4864 359° North 78 90 1,400 -420 Descending Chicago Center
08:03PM 43.7594 -88.4867 359° North 75 86 1,000 -180 Descending Chicago Center
08:05PM 43.7667 -88.4833 18° North 71 82 1,000  Level KMKE
08:07PM 43.7667 -88.4833 216° Southwest 71 82 1,000  Level KMKE